sensor_id;sensor_type;location;lat;lon;timestamp;P1;P2;P0
69349;PMS5003;64554;43.452;4.934;2022-11-20T00:00:14;3.20;2.00;1.00
69349;PMS5003;64554;43.452;4.934;2022-11-20T00:02:40;2.00;2.00;1.00
69349;PMS5003;64554;43.452;4.934;2022-11-20T00:05:07;1.60;1.60;1.00
69349;PMS5003;64554;43.452;4.934;2022-11-20T00:07:34;1.00;1.00;1.00
69349;PMS5003;64554;43.452;4.934;2022-11-20T00:10:00;1.67;1.67;1.00
69349;PMS5003;64554;43.452;4.934;2022-11-20T00:12:27;2.80;2.80;1.00
69349;PMS5003;64554;43.452;4.934;2022-11-20T00:14:54;2.00;2.00;1.00
69349;PMS5003;64554;43.452;4.934;2022-11-20T00:17:20;1.40;1.40;0.00
69349;PMS5003;64554;43.452;4.934;2022-11-20T00:19:47;1.00;1.00;1.00
69349;PMS5003;64554;43.452;4.934;2022-11-20T00:22:13;2.00;2.00;1.00
69349;PMS5003;64554;43.452;4.934;2022-11-20T00:24:40;1.00;1.00;0.40
69349;PMS5003;64554;43.452;4.934;2022-11-20T00:27:08;1.00;1.00;0.20
69349;PMS5003;64554;43.452;4.934;2022-11-20T00:29:34;3.00;2.00;1.00
69349;PMS5003;64554;43.452;4.934;2022-11-20T00:32:01;6.00;3.00;1.00
69349;PMS5003;64554;43.452;4.934;2022-11-20T00:34:27;1.00;1.00;0.00
69349;PMS5003;64554;43.452;4.934;2022-11-20T00:36:54;1.00;1.00;1.00
69349;PMS5003;64554;43.452;4.934;2022-11-20T00:39:20;1.00;1.00;0.00
69349;PMS5003;64554;43.452;4.934;2022-11-20T00:41:47;1.00;1.00;0.60
69349;PMS5003;64554;43.452;4.934;2022-11-20T00:44:14;2.00;2.00;1.00
69349;PMS5003;64554;43.452;4.934;2022-11-20T00:46:40;1.00;1.00;0.40
69349;PMS5003;64554;43.452;4.934;2022-11-20T00:49:06;1.75;1.75;1.00
69349;PMS5003;64554;43.452;4.934;2022-11-20T00:51:33;2.00;1.00;1.00
69349;PMS5003;64554;43.452;4.934;2022-11-20T00:54:00;1.00;1.00;1.00
69349;PMS5003;64554;43.452;4.934;2022-11-20T00:56:28;1.00;1.00;0.25
69349;PMS5003;64554;43.452;4.934;2022-11-20T00:58:55;2.00;2.00;1.00
69349;PMS5003;64554;43.452;4.934;2022-11-20T01:01:22;2.20;2.20;1.00
69349;PMS5003;64554;43.452;4.934;2022-11-20T01:03:53;1.00;1.00;0.80
69349;PMS5003;64554;43.452;4.934;2022-11-20T01:06:21;1.00;1.00;0.40
69349;PMS5003;64554;43.452;4.934;2022-11-20T01:08:48;1.00;1.00;1.00
69349;PMS5003;64554;43.452;4.934;2022-11-20T01:11:19;3.00;2.00;0.67
69349;PMS5003;64554;43.452;4.934;2022-11-20T01:13:47;1.00;1.00;0.25
69349;PMS5003;64554;43.452;4.934;2022-11-20T01:16:17;1.60;1.60;1.00
69349;PMS5003;64554;43.452;4.934;2022-11-20T01:18:45;1.40;1.40;1.00
69349;PMS5003;64554;43.452;4.934;2022-11-20T01:21:14;1.80;1.80;1.00
69349;PMS5003;64554;43.452;4.934;2022-11-20T01:23:41;1.00;1.00;1.00
69349;PMS5003;64554;43.452;4.934;2022-11-20T01:26:18;3.00;3.00;1.00
69349;PMS5003;64554;43.452;4.934;2022-11-20T01:28:45;2.00;2.00;1.00
69349;PMS5003;64554;43.452;4.934;2022-11-20T01:33:39;2.00;2.00;1.00
69349;PMS5003;64554;43.452;4.934;2022-11-20T01:36:06;1.00;1.00;1.00
69349;PMS5003;64554;43.452;4.934;2022-11-20T01:38:32;2.00;2.00;1.00
69349;PMS5003;64554;43.452;4.934;2022-11-20T01:40:59;2.40;1.00;1.00
69349;PMS5003;64554;43.452;4.934;2022-11-20T01:43:25;2.00;1.00;1.00
69349;PMS5003;64554;43.452;4.934;2022-11-20T01:45:56;2.00;1.00;0.00
69349;PMS5003;64554;43.452;4.934;2022-11-20T01:48:24;1.00;1.00;0.00
69349;PMS5003;64554;43.452;4.934;2022-11-20T01:50:52;1.00;1.00;0.00
69349;PMS5003;64554;43.452;4.934;2022-11-20T01:53:21;3.00;3.00;1.00
69349;PMS5003;64554;43.452;4.934;2022-11-20T01:55:51;0.50;0.50;0.00
69349;PMS5003;64554;43.452;4.934;2022-11-20T01:58:20;3.00;3.00;1.00
69349;PMS5003;64554;43.452;4.934;2022-11-20T02:00:48;2.00;1.00;0.00
69349;PMS5003;64554;43.452;4.934;2022-11-20T02:03:18;1.00;1.00;1.00
69349;PMS5003;64554;43.452;4.934;2022-11-20T02:05:47;1.00;1.00;1.00
69349;PMS5003;64554;43.452;4.934;2022-11-20T02:08:16;2.00;2.00;1.00
69349;PMS5003;64554;43.452;4.934;2022-11-20T02:10:43;1.00;1.00;0.00
69349;PMS5003;64554;43.452;4.934;2022-11-20T02:13:10;1.00;1.00;0.40
69349;PMS5003;64554;43.452;4.934;2022-11-20T02:15:55;2.00;2.00;1.00
69349;PMS5003;64554;43.452;4.934;2022-11-20T02:18:22;1.20;1.20;0.80
69349;PMS5003;64554;43.452;4.934;2022-11-20T02:20:50;1.00;1.00;1.00
69349;PMS5003;64554;43.452;4.934;2022-11-20T02:25:57;1.00;1.00;1.00
69349;PMS5003;64554;43.452;4.934;2022-11-20T02:28:25;0.00;0.00;0.00
69349;PMS5003;64554;43.452;4.934;2022-11-20T02:30:51;2.00;1.00;1.00
69349;PMS5003;64554;43.452;4.934;2022-11-20T02:33:18;1.00;1.00;1.00
69349;PMS5003;64554;43.452;4.934;2022-11-20T02:35:45;2.00;2.00;1.00
69349;PMS5003;64554;43.452;4.934;2022-11-20T02:38:11;0.00;0.00;0.00
69349;PMS5003;64554;43.452;4.934;2022-11-20T02:40:39;3.00;2.00;0.25
69349;PMS5003;64554;43.452;4.934;2022-11-20T02:43:05;1.80;1.80;1.00
69349;PMS5003;64554;43.452;4.934;2022-11-20T02:45:32;0.33;0.00;0.00
69349;PMS5003;64554;43.452;4.934;2022-11-20T02:47:59;2.00;2.00;0.00
69349;PMS5003;64554;43.452;4.934;2022-11-20T02:50:25;1.00;1.00;0.00
69349;PMS5003;64554;43.452;4.934;2022-11-20T02:52:51;2.00;2.00;1.00
69349;PMS5003;64554;43.452;4.934;2022-11-20T02:55:18;2.00;2.00;0.00
69349;PMS5003;64554;43.452;4.934;2022-11-20T02:57:44;4.60;4.60;1.00
69349;PMS5003;64554;43.452;4.934;2022-11-20T03:00:11;5.00;3.00;1.00
69349;PMS5003;64554;43.452;4.934;2022-11-20T03:02:38;1.00;1.00;1.00
69349;PMS5003;64554;43.452;4.934;2022-11-20T03:05:04;2.20;1.60;1.00
69349;PMS5003;64554;43.452;4.934;2022-11-20T03:07:31;2.00;2.00;1.40
69349;PMS5003;64554;43.452;4.934;2022-11-20T03:09:57;2.00;2.00;1.00
69349;PMS5003;64554;43.452;4.934;2022-11-20T03:12:23;2.00;0.75;0.00
69349;PMS5003;64554;43.452;4.934;2022-11-20T03:14:50;1.80;1.80;1.00
69349;PMS5003;64554;43.452;4.934;2022-11-20T03:17:18;3.50;3.50;1.00
69349;PMS5003;64554;43.452;4.934;2022-11-20T03:19:45;1.50;1.00;1.00
69349;PMS5003;64554;43.452;4.934;2022-11-20T03:22:11;2.00;1.00;1.00
69349;PMS5003;64554;43.452;4.934;2022-11-20T03:24:38;3.00;2.00;1.00
69349;PMS5003;64554;43.452;4.934;2022-11-20T03:27:04;4.40;3.00;1.00
69349;PMS5003;64554;43.452;4.934;2022-11-20T03:29:31;2.00;2.00;1.60
69349;PMS5003;64554;43.452;4.934;2022-11-20T03:31:57;2.00;1.00;1.00
69349;PMS5003;64554;43.452;4.934;2022-11-20T03:34:24;4.25;1.75;1.00
69349;PMS5003;64554;43.452;4.934;2022-11-20T03:36:50;2.80;2.80;1.00
69349;PMS5003;64554;43.452;4.934;2022-11-20T03:39:16;1.00;1.00;0.20
69349;PMS5003;64554;43.452;4.934;2022-11-20T03:41:43;3.25;2.25;1.00
69349;PMS5003;64554;43.452;4.934;2022-11-20T03:44:10;1.80;1.80;0.20
69349;PMS5003;64554;43.452;4.934;2022-11-20T03:46:37;2.00;2.00;1.00
69349;PMS5003;64554;43.452;4.934;2022-11-20T03:49:04;2.00;2.00;1.00
69349;PMS5003;64554;43.452;4.934;2022-11-20T03:51:31;1.00;1.00;1.00
69349;PMS5003;64554;43.452;4.934;2022-11-20T03:53:59;2.40;2.40;1.40
69349;PMS5003;64554;43.452;4.934;2022-11-20T03:56:27;2.00;2.00;1.00
69349;PMS5003;64554;43.452;4.934;2022-11-20T03:58:54;2.00;2.00;1.00
69349;PMS5003;64554;43.452;4.934;2022-11-20T04:01:27;1.00;1.00;1.00
69349;PMS5003;64554;43.452;4.934;2022-11-20T04:03:54;1.00;1.00;0.40
69349;PMS5003;64554;43.452;4.934;2022-11-20T04:06:22;1.00;1.00;1.00
69349;PMS5003;64554;43.452;4.934;2022-11-20T04:08:49;2.00;2.00;1.00
69349;PMS5003;64554;43.452;4.934;2022-11-20T04:11:20;3.00;1.00;0.00
69349;PMS5003;64554;43.452;4.934;2022-11-20T04:13:47;3.00;2.00;1.00
69349;PMS5003;64554;43.452;4.934;2022-11-20T04:16:14;2.00;2.00;1.33
69349;PMS5003;64554;43.452;4.934;2022-11-20T04:18:40;2.00;2.00;1.00
69349;PMS5003;64554;43.452;4.934;2022-11-20T04:21:07;3.00;2.00;1.00
69349;PMS5003;64554;43.452;4.934;2022-11-20T04:23:33;4.00;2.40;1.40
69349;PMS5003;64554;43.452;4.934;2022-11-20T04:26:04;1.00;1.00;1.00
69349;PMS5003;64554;43.452;4.934;2022-11-20T04:28:31;2.00;2.00;1.40
69349;PMS5003;64554;43.452;4.934;2022-11-20T04:33:33;3.00;2.00;1.00
69349;PMS5003;64554;43.452;4.934;2022-11-20T04:36:07;3.40;3.40;1.40
69349;PMS5003;64554;43.452;4.934;2022-11-20T04:38:33;2.50;2.50;2.00
69349;PMS5003;64554;43.452;4.934;2022-11-20T04:41:01;3.00;2.00;1.00
69349;PMS5003;64554;43.452;4.934;2022-11-20T04:43:27;11.50;9.50;8.00
69349;PMS5003;64554;43.452;4.934;2022-11-20T04:45:55;7.20;5.80;3.80
69349;PMS5003;64554;43.452;4.934;2022-11-20T04:48:21;5.25;5.25;3.25
69349;PMS5003;64554;43.452;4.934;2022-11-20T04:50:48;3.00;3.00;2.00
69349;PMS5003;64554;43.452;4.934;2022-11-20T04:53:15;5.00;4.00;3.00
69349;PMS5003;64554;43.452;4.934;2022-11-20T04:55:41;2.00;2.00;2.00
69349;PMS5003;64554;43.452;4.934;2022-11-20T04:58:08;3.20;3.20;2.00
69349;PMS5003;64554;43.452;4.934;2022-11-20T05:00:34;2.00;2.00;2.00
69349;PMS5003;64554;43.452;4.934;2022-11-20T05:03:01;3.20;2.20;1.20
69349;PMS5003;64554;43.452;4.934;2022-11-20T05:05:27;3.00;3.00;1.00
69349;PMS5003;64554;43.452;4.934;2022-11-20T05:07:57;4.00;4.00;3.00
69349;PMS5003;64554;43.452;4.934;2022-11-20T05:10:24;5.50;3.50;2.00
69349;PMS5003;64554;43.452;4.934;2022-11-20T05:12:51;2.00;2.00;1.00
69349;PMS5003;64554;43.452;4.934;2022-11-20T05:15:17;2.80;2.80;1.00
69349;PMS5003;64554;43.452;4.934;2022-11-20T05:17:47;2.25;2.25;1.00
69349;PMS5003;64554;43.452;4.934;2022-11-20T05:20:14;1.50;1.50;1.00
69349;PMS5003;64554;43.452;4.934;2022-11-20T05:22:41;3.00;2.00;1.00
69349;PMS5003;64554;43.452;4.934;2022-11-20T05:25:08;3.25;3.25;2.00
69349;PMS5003;64554;43.452;4.934;2022-11-20T05:27:35;3.00;2.00;0.40
69349;PMS5003;64554;43.452;4.934;2022-11-20T05:30:02;3.00;3.00;2.00
69349;PMS5003;64554;43.452;4.934;2022-11-20T05:32:28;4.00;3.00;2.00
69349;PMS5003;64554;43.452;4.934;2022-11-20T05:34:55;2.00;2.00;1.00
69349;PMS5003;64554;43.452;4.934;2022-11-20T05:37:21;2.00;2.00;1.00
69349;PMS5003;64554;43.452;4.934;2022-11-20T05:39:48;1.50;1.50;1.00
69349;PMS5003;64554;43.452;4.934;2022-11-20T05:42:14;4.75;3.00;2.00
69349;PMS5003;64554;43.452;4.934;2022-11-20T05:44:57;2.40;2.40;2.00
69349;PMS5003;64554;43.452;4.934;2022-11-20T05:47:23;3.00;2.00;1.00
69349;PMS5003;64554;43.452;4.934;2022-11-20T05:49:50;1.60;1.20;1.00
69349;PMS5003;64554;43.452;4.934;2022-11-20T05:52:16;2.00;2.00;1.00
69349;PMS5003;64554;43.452;4.934;2022-11-20T05:54:42;2.75;2.75;2.00
69349;PMS5003;64554;43.452;4.934;2022-11-20T05:57:09;4.75;4.00;2.00
69349;PMS5003;64554;43.452;4.934;2022-11-20T05:59:35;4.00;2.20;2.00
69349;PMS5003;64554;43.452;4.934;2022-11-20T06:02:02;5.00;3.00;1.25
69349;PMS5003;64554;43.452;4.934;2022-11-20T06:04:28;2.00;2.00;1.00
69349;PMS5003;64554;43.452;4.934;2022-11-20T06:06:55;5.00;5.00;2.00
69349;PMS5003;64554;43.452;4.934;2022-11-20T06:09:21;5.75;5.00;2.00
69349;PMS5003;64554;43.452;4.934;2022-11-20T06:11:48;3.00;2.50;2.00
69349;PMS5003;64554;43.452;4.934;2022-11-20T06:14:14;3.00;3.00;2.00
69349;PMS5003;64554;43.452;4.934;2022-11-20T06:16:41;2.00;2.00;1.00
69349;PMS5003;64554;43.452;4.934;2022-11-20T06:19:07;4.50;4.50;2.50
69349;PMS5003;64554;43.452;4.934;2022-11-20T06:21:33;4.00;4.00;2.00
69349;PMS5003;64554;43.452;4.934;2022-11-20T06:24:00;3.00;3.00;2.00
69349;PMS5003;64554;43.452;4.934;2022-11-20T06:26:27;3.00;2.00;2.00
69349;PMS5003;64554;43.452;4.934;2022-11-20T06:28:54;4.00;4.00;2.80
69349;PMS5003;64554;43.452;4.934;2022-11-20T06:31:22;1.50;1.50;1.00
69349;PMS5003;64554;43.452;4.934;2022-11-20T06:33:49;3.20;3.20;2.00
69349;PMS5003;64554;43.452;4.934;2022-11-20T06:36:17;6.00;4.60;2.00
69349;PMS5003;64554;43.452;4.934;2022-11-20T06:38:44;5.00;5.00;2.20
69349;PMS5003;64554;43.452;4.934;2022-11-20T06:41:15;2.60;1.00;1.00
69349;PMS5003;64554;43.452;4.934;2022-11-20T06:43:42;5.00;5.00;3.00
69349;PMS5003;64554;43.452;4.934;2022-11-20T06:46:09;4.20;4.20;2.00
69349;PMS5003;64554;43.452;4.934;2022-11-20T06:48:36;2.00;2.00;1.40
69349;PMS5003;64554;43.452;4.934;2022-11-20T06:51:03;3.50;3.50;2.00
69349;PMS5003;64554;43.452;4.934;2022-11-20T06:53:30;4.50;3.00;2.00
69349;PMS5003;64554;43.452;4.934;2022-11-20T06:55:56;5.00;5.00;3.00
69349;PMS5003;64554;43.452;4.934;2022-11-20T06:58:27;5.00;3.40;2.40
69349;PMS5003;64554;43.452;4.934;2022-11-20T07:00:57;4.60;3.00;1.00
69349;PMS5003;64554;43.452;4.934;2022-11-20T07:03:23;5.00;3.75;2.75
69349;PMS5003;64554;43.452;4.934;2022-11-20T07:05:50;6.50;5.50;3.00
69349;PMS5003;64554;43.452;4.934;2022-11-20T07:08:16;5.00;3.00;1.00
69349;PMS5003;64554;43.452;4.934;2022-11-20T07:10:43;3.00;3.00;2.00
69349;PMS5003;64554;43.452;4.934;2022-11-20T07:13:09;3.60;3.60;1.60
69349;PMS5003;64554;43.452;4.934;2022-11-20T07:15:36;3.40;3.40;2.40
69349;PMS5003;64554;43.452;4.934;2022-11-20T07:18:02;8.60;8.60;3.00
69349;PMS5003;64554;43.452;4.934;2022-11-20T07:20:29;3.50;3.50;2.00
69349;PMS5003;64554;43.452;4.934;2022-11-20T07:22:55;7.40;7.40;5.00
69349;PMS5003;64554;43.452;4.934;2022-11-20T07:25:23;4.00;4.00;3.00
69349;PMS5003;64554;43.452;4.934;2022-11-20T07:27:49;3.40;3.40;2.00
69349;PMS5003;64554;43.452;4.934;2022-11-20T07:30:16;3.00;3.00;2.50
69349;PMS5003;64554;43.452;4.934;2022-11-20T07:32:46;5.00;3.00;2.00
69349;PMS5003;64554;43.452;4.934;2022-11-20T07:35:12;8.00;6.00;3.80
69349;PMS5003;64554;43.452;4.934;2022-11-20T07:37:39;4.00;4.00;2.00
69349;PMS5003;64554;43.452;4.934;2022-11-20T07:40:05;6.00;6.00;3.00
69349;PMS5003;64554;43.452;4.934;2022-11-20T07:42:32;4.00;4.00;2.00
69349;PMS5003;64554;43.452;4.934;2022-11-20T07:44:58;3.00;3.00;2.00
69349;PMS5003;64554;43.452;4.934;2022-11-20T07:47:25;5.00;3.00;2.40
69349;PMS5003;64554;43.452;4.934;2022-11-20T07:49:51;5.00;5.00;4.00
69349;PMS5003;64554;43.452;4.934;2022-11-20T07:52:18;11.40;10.00;5.40
69349;PMS5003;64554;43.452;4.934;2022-11-20T07:54:44;16.40;14.40;8.40
69349;PMS5003;64554;43.452;4.934;2022-11-20T07:57:10;7.00;5.00;4.00
69349;PMS5003;64554;43.452;4.934;2022-11-20T07:59:37;9.50;9.50;7.00
69349;PMS5003;64554;43.452;4.934;2022-11-20T08:02:05;10.25;8.25;5.25
69349;PMS5003;64554;43.452;4.934;2022-11-20T08:04:31;9.75;9.75;7.00
69349;PMS5003;64554;43.452;4.934;2022-11-20T08:06:58;15.00;13.50;7.00
69349;PMS5003;64554;43.452;4.934;2022-11-20T08:09:24;8.00;8.00;5.00
69349;PMS5003;64554;43.452;4.934;2022-11-20T08:11:51;12.00;12.00;6.50
69349;PMS5003;64554;43.452;4.934;2022-11-20T08:14:36;13.20;10.60;7.60
69349;PMS5003;64554;43.452;4.934;2022-11-20T08:17:02;9.50;9.50;5.00
69349;PMS5003;64554;43.452;4.934;2022-11-20T08:19:29;16.67;14.33;7.67
69349;PMS5003;64554;43.452;4.934;2022-11-20T08:21:55;15.00;15.00;9.00
69349;PMS5003;64554;43.452;4.934;2022-11-20T08:24:22;12.00;9.00;6.00
69349;PMS5003;64554;43.452;4.934;2022-11-20T08:26:48;14.60;13.00;8.00
69349;PMS5003;64554;43.452;4.934;2022-11-20T08:29:15;9.00;9.00;5.50
69349;PMS5003;64554;43.452;4.934;2022-11-20T08:31:41;14.20;13.60;9.00
69349;PMS5003;64554;43.452;4.934;2022-11-20T08:34:08;13.00;11.40;7.00
69349;PMS5003;64554;43.452;4.934;2022-11-20T08:36:36;5.00;5.00;4.00
69349;PMS5003;64554;43.452;4.934;2022-11-20T08:39:02;12.00;10.75;5.00
69349;PMS5003;64554;43.452;4.934;2022-11-20T08:41:29;8.00;8.00;5.50
69349;PMS5003;64554;43.452;4.934;2022-11-20T08:44:00;10.60;10.60;7.60
69349;PMS5003;64554;43.452;4.934;2022-11-20T08:46:31;16.20;15.00;7.20
69349;PMS5003;64554;43.452;4.934;2022-11-20T08:49:05;20.00;18.00;10.00
69349;PMS5003;64554;43.452;4.934;2022-11-20T08:51:32;21.50;19.00;11.50
69349;PMS5003;64554;43.452;4.934;2022-11-20T08:53:59;23.50;23.50;16.50
69349;PMS5003;64554;43.452;4.934;2022-11-20T08:56:25;24.20;22.40;16.00
69349;PMS5003;64554;43.452;4.934;2022-11-20T08:58:52;12.50;12.50;9.00
69349;PMS5003;64554;43.452;4.934;2022-11-20T09:01:38;75.20;65.40;42.60
69349;PMS5003;64554;43.452;4.934;2022-11-20T09:04:05;21.00;19.50;10.50
69349;PMS5003;64554;43.452;4.934;2022-11-20T09:06:32;31.75;29.25;19.25
69349;PMS5003;64554;43.452;4.934;2022-11-20T09:08:58;28.60;28.00;17.60
69349;PMS5003;64554;43.452;4.934;2022-11-20T09:11:31;23.00;21.00;12.00
69349;PMS5003;64554;43.452;4.934;2022-11-20T09:13:58;32.75;29.50;18.25
69349;PMS5003;64554;43.452;4.934;2022-11-20T09:16:24;9.50;9.50;8.00
69349;PMS5003;64554;43.452;4.934;2022-11-20T09:18:51;6.00;5.50;3.50
69349;PMS5003;64554;43.452;4.934;2022-11-20T09:21:37;15.00;14.00;12.00
69349;PMS5003;64554;43.452;4.934;2022-11-20T09:24:04;20.20;20.20;16.00
69349;PMS5003;64554;43.452;4.934;2022-11-20T09:26:31;25.67;24.67;19.33
69349;PMS5003;64554;43.452;4.934;2022-11-20T09:28:57;20.75;20.75;14.50
69349;PMS5003;64554;43.452;4.934;2022-11-20T09:31:24;16.75;15.50;10.75
69349;PMS5003;64554;43.452;4.934;2022-11-20T09:33:52;15.00;14.60;10.60
69349;PMS5003;64554;43.452;4.934;2022-11-20T09:36:18;8.00;8.00;6.00
69349;PMS5003;64554;43.452;4.934;2022-11-20T09:38:45;17.00;13.50;8.00
69349;PMS5003;64554;43.452;4.934;2022-11-20T09:43:58;21.75;19.75;13.75
69349;PMS5003;64554;43.452;4.934;2022-11-20T09:56:41;13.20;12.00;4.20
69349;PMS5003;64554;43.452;4.934;2022-11-20T09:59:13;12.40;10.40;8.00
69349;PMS5003;64554;43.452;4.934;2022-11-20T10:01:42;21.25;21.25;17.00
69349;PMS5003;64554;43.452;4.934;2022-11-20T10:04:19;16.50;16.50;9.75
69349;PMS5003;64554;43.452;4.934;2022-11-20T10:09:58;11.40;10.00;7.00
69349;PMS5003;64554;43.452;4.934;2022-11-20T10:15:11;6.20;6.20;5.00
69349;PMS5003;64554;43.452;4.934;2022-11-20T10:20:43;7.20;6.20;4.40
69349;PMS5003;64554;43.452;4.934;2022-11-20T10:26:03;4.00;4.00;3.00
69349;PMS5003;64554;43.452;4.934;2022-11-20T10:28:43;3.20;3.20;2.20
69349;PMS5003;64554;43.452;4.934;2022-11-20T10:33:51;6.25;5.25;3.25
69349;PMS5003;64554;43.452;4.934;2022-11-20T10:36:44;7.00;7.00;4.00
69349;PMS5003;64554;43.452;4.934;2022-11-20T10:39:21;6.40;6.40;4.40
69349;PMS5003;64554;43.452;4.934;2022-11-20T10:41:50;4.00;2.60;2.00
69349;PMS5003;64554;43.452;4.934;2022-11-20T10:44:21;10.40;8.00;5.40
69349;PMS5003;64554;43.452;4.934;2022-11-20T10:47:11;6.40;6.40;4.40
69349;PMS5003;64554;43.452;4.934;2022-11-20T10:49:38;8.40;8.40;6.00
69349;PMS5003;64554;43.452;4.934;2022-11-20T10:54:41;3.00;3.00;2.00
69349;PMS5003;64554;43.452;4.934;2022-11-20T10:57:34;4.40;3.40;2.00
69349;PMS5003;64554;43.452;4.934;2022-11-20T11:02:23;13.50;12.50;9.00
69349;PMS5003;64554;43.452;4.934;2022-11-20T11:04:51;7.25;7.25;5.00
69349;PMS5003;64554;43.452;4.934;2022-11-20T11:07:25;14.50;13.00;10.00
69349;PMS5003;64554;43.452;4.934;2022-11-20T11:09:54;21.50;20.50;13.25
69349;PMS5003;64554;43.452;4.934;2022-11-20T11:12:22;12.33;12.33;9.00
69349;PMS5003;64554;43.452;4.934;2022-11-20T11:14:50;23.00;23.00;17.50
69349;PMS5003;64554;43.452;4.934;2022-11-20T11:17:38;5.75;5.75;4.00
69349;PMS5003;64554;43.452;4.934;2022-11-20T11:20:14;3.00;3.00;2.00
69349;PMS5003;64554;43.452;4.934;2022-11-20T11:22:43;4.00;4.00;3.00
69349;PMS5003;64554;43.452;4.934;2022-11-20T11:25:18;9.40;9.40;8.00
69349;PMS5003;64554;43.452;4.934;2022-11-20T11:27:46;2.00;2.00;2.00
69349;PMS5003;64554;43.452;4.934;2022-11-20T11:30:14;3.00;3.00;2.00
69349;PMS5003;64554;43.452;4.934;2022-11-20T11:32:42;6.40;6.40;5.40
69349;PMS5003;64554;43.452;4.934;2022-11-20T11:35:25;5.00;5.00;4.00
69349;PMS5003;64554;43.452;4.934;2022-11-20T11:38:15;4.00;4.00;3.00
69349;PMS5003;64554;43.452;4.934;2022-11-20T11:40:39;4.00;4.00;3.00
69349;PMS5003;64554;43.452;4.934;2022-11-20T11:43:07;5.75;4.75;3.75
69349;PMS5003;64554;43.452;4.934;2022-11-20T11:46:04;18.20;18.20;15.60
69349;PMS5003;64554;43.452;4.934;2022-11-20T11:48:34;7.20;7.20;5.20
69349;PMS5003;64554;43.452;4.934;2022-11-20T11:51:00;16.50;16.50;13.50
69349;PMS5003;64554;43.452;4.934;2022-11-20T11:53:27;30.80;29.20;18.60
69349;PMS5003;64554;43.452;4.934;2022-11-20T11:58:46;2.20;2.20;1.60
69349;PMS5003;64554;43.452;4.934;2022-11-20T12:04:00;9.00;9.00;7.00
69349;PMS5003;64554;43.452;4.934;2022-11-20T12:06:30;13.25;13.25;9.75
69349;PMS5003;64554;43.452;4.934;2022-11-20T12:08:59;17.25;16.75;9.75
69349;PMS5003;64554;43.452;4.934;2022-11-20T12:14:20;5.00;4.40;3.40
69349;PMS5003;64554;43.452;4.934;2022-11-20T12:16:50;10.25;10.25;8.75
69349;PMS5003;64554;43.452;4.934;2022-11-20T12:19:19;16.75;16.75;13.75
69349;PMS5003;64554;43.452;4.934;2022-11-20T12:24:52;7.20;7.20;5.20
69349;PMS5003;64554;43.452;4.934;2022-11-20T12:40:34;5.00;3.25;3.00
69349;PMS5003;64554;43.452;4.934;2022-11-20T12:43:26;14.00;14.00;10.20
69349;PMS5003;64554;43.452;4.934;2022-11-20T12:46:28;17.00;16.20;12.20
69349;PMS5003;64554;43.452;4.934;2022-11-20T12:49:04;4.00;4.00;2.60
69349;PMS5003;64554;43.452;4.934;2022-11-20T12:56:38;4.00;4.00;3.00
69349;PMS5003;64554;43.452;4.934;2022-11-20T13:01:55;4.00;4.00;3.00
69349;PMS5003;64554;43.452;4.934;2022-11-20T13:06:57;8.00;6.50;4.50
69349;PMS5003;64554;43.452;4.934;2022-11-20T13:09:24;2.75;2.00;1.00
69349;PMS5003;64554;43.452;4.934;2022-11-20T13:14:41;5.20;4.20;2.20
69349;PMS5003;64554;43.452;4.934;2022-11-20T13:19:39;3.60;3.60;3.00
69349;PMS5003;64554;43.452;4.934;2022-11-20T13:22:07;3.60;3.60;3.00
69349;PMS5003;64554;43.452;4.934;2022-11-20T13:24:34;7.00;7.00;5.00
69349;PMS5003;64554;43.452;4.934;2022-11-20T13:27:04;6.60;5.40;2.00
69349;PMS5003;64554;43.452;4.934;2022-11-20T13:29:32;4.40;2.00;1.40
69349;PMS5003;64554;43.452;4.934;2022-11-20T13:32:06;5.75;5.75;3.75
69349;PMS5003;64554;43.452;4.934;2022-11-20T13:34:35;2.40;2.40;2.00
69349;PMS5003;64554;43.452;4.934;2022-11-20T13:37:02;7.20;7.00;5.80
69349;PMS5003;64554;43.452;4.934;2022-11-20T13:39:31;7.60;7.60;5.00
69349;PMS5003;64554;43.452;4.934;2022-11-20T13:42:20;7.40;7.40;5.40
69349;PMS5003;64554;43.452;4.934;2022-11-20T13:44:46;3.75;3.75;2.75
69349;PMS5003;64554;43.452;4.934;2022-11-20T13:47:23;7.25;7.25;5.25
69349;PMS5003;64554;43.452;4.934;2022-11-20T13:49:51;10.20;9.00;6.00
69349;PMS5003;64554;43.452;4.934;2022-11-20T14:00:22;8.60;8.60;5.60
69349;PMS5003;64554;43.452;4.934;2022-11-20T14:02:58;16.25;14.25;11.00
69349;PMS5003;64554;43.452;4.934;2022-11-20T14:05:25;9.00;6.40;4.40
69349;PMS5003;64554;43.452;4.934;2022-11-20T14:07:52;7.00;7.00;4.00
69349;PMS5003;64554;43.452;4.934;2022-11-20T14:10:20;45.80;38.80;25.40
69349;PMS5003;64554;43.452;4.934;2022-11-20T14:12:51;34.60;31.60;21.60
69349;PMS5003;64554;43.452;4.934;2022-11-20T14:17:53;3.50;3.00;1.00
69349;PMS5003;64554;43.452;4.934;2022-11-20T14:20:19;13.50;13.50;7.50
69349;PMS5003;64554;43.452;4.934;2022-11-20T14:22:52;3.00;3.00;1.00
69349;PMS5003;64554;43.452;4.934;2022-11-20T14:25:22;7.00;7.00;3.20
69349;PMS5003;64554;43.452;4.934;2022-11-20T14:27:53;2.60;2.40;2.00
69349;PMS5003;64554;43.452;4.934;2022-11-20T14:30:22;10.00;7.50;6.00
69349;PMS5003;64554;43.452;4.934;2022-11-20T14:32:48;4.80;4.80;2.80
69349;PMS5003;64554;43.452;4.934;2022-11-20T14:35:30;12.00;12.00;9.00
69349;PMS5003;64554;43.452;4.934;2022-11-20T14:37:57;18.00;16.40;13.00
69349;PMS5003;64554;43.452;4.934;2022-11-20T14:40:25;15.75;13.00;10.00
69349;PMS5003;64554;43.452;4.934;2022-11-20T14:42:52;16.80;16.80;9.20
69349;PMS5003;64554;43.452;4.934;2022-11-20T14:45:19;6.20;6.20;3.80
69349;PMS5003;64554;43.452;4.934;2022-11-20T14:47:46;6.25;6.25;4.00
69349;PMS5003;64554;43.452;4.934;2022-11-20T14:50:18;17.00;17.00;11.40
69349;PMS5003;64554;43.452;4.934;2022-11-20T14:52:55;9.40;9.40;8.00
69349;PMS5003;64554;43.452;4.934;2022-11-20T14:57:55;25.00;24.40;15.00
69349;PMS5003;64554;43.452;4.934;2022-11-20T15:00:22;15.00;13.20;5.20
69349;PMS5003;64554;43.452;4.934;2022-11-20T15:02:50;20.20;19.40;14.40
69349;PMS5003;64554;43.452;4.934;2022-11-20T15:05:17;57.75;48.25;32.50
69349;PMS5003;64554;43.452;4.934;2022-11-20T15:07:45;47.00;40.00;26.00
69349;PMS5003;64554;43.452;4.934;2022-11-20T15:12:49;51.50;43.25;30.25
69349;PMS5003;64554;43.452;4.934;2022-11-20T15:15:19;38.00;33.60;22.80
69349;PMS5003;64554;43.452;4.934;2022-11-20T15:17:47;21.40;21.40;16.40
69349;PMS5003;64554;43.452;4.934;2022-11-20T15:20:14;2.00;2.00;1.00
69349;PMS5003;64554;43.452;4.934;2022-11-20T15:22:41;19.00;19.00;12.50
69349;PMS5003;64554;43.452;4.934;2022-11-20T15:25:14;6.00;6.00;4.00
69349;PMS5003;64554;43.452;4.934;2022-11-20T15:27:41;13.33;13.33;10.33
69349;PMS5003;64554;43.452;4.934;2022-11-20T15:30:15;7.00;5.50;4.00
69349;PMS5003;64554;43.452;4.934;2022-11-20T15:32:43;7.25;7.25;5.00
69349;PMS5003;64554;43.452;4.934;2022-11-20T15:35:10;4.00;4.00;2.00
69349;PMS5003;64554;43.452;4.934;2022-11-20T15:37:37;11.00;11.00;9.00
69349;PMS5003;64554;43.452;4.934;2022-11-20T15:40:04;19.00;18.00;13.40
69349;PMS5003;64554;43.452;4.934;2022-11-20T15:42:30;25.00;22.00;15.00
69349;PMS5003;64554;43.452;4.934;2022-11-20T15:44:57;9.00;9.00;6.40
69349;PMS5003;64554;43.452;4.934;2022-11-20T15:47:30;3.00;3.00;2.00
69349;PMS5003;64554;43.452;4.934;2022-11-20T15:49:57;11.60;10.80;7.00
69349;PMS5003;64554;43.452;4.934;2022-11-20T15:52:24;17.25;16.00;13.00
69349;PMS5003;64554;43.452;4.934;2022-11-20T15:54:50;6.40;6.40;4.40
69349;PMS5003;64554;43.452;4.934;2022-11-20T15:57:16;12.60;11.60;10.00
69349;PMS5003;64554;43.452;4.934;2022-11-20T15:59:43;9.40;9.40;7.20